Main page
METAR-TAF:

METAR-TAF

Airports :

Jacksonville International Airport

Jacksonville, Florida, United States

latitude: 30-29-40N, longitude: 081-41-36W, elevation: 30 ft

Current weather observation

The report was made 31 minutes ago, at 03:56 UTC
Calm wind
Temperature 64°F
Humidity 94%
Pressure 30.07 in. Hg
Visibility: 10 miles
Few clouds at a height of 5500 ft
Few clouds at a height of 25000 ft

METAR: KJAX 260356Z 00000KT 10SM FEW055 FEW250 18/17 A3007 RMK AO2 SLP183 T01830172

Time: 00:27 (04:27 UTC)

Forecast

The report was made 5 hours and 1 minutes ago, at 23:26 UTC
Forecast valid from 26 at 00 UTC to 26 at 24 UTC
Wind 5 mph from variable directions
Visibility: 6 miles
Few clouds at a height of 5000 ft
Scattered clouds at a height of 25000 ft
From 26 at 1800 UTC
Wind 10 mph from the East/Northeast
Visibility: 6 miles
Scattered clouds at a height of 5000 ft

TAF: KJAX 252326Z 2600/2624 VRB04KT P6SM FEW050 SCT250 FM261800 06009KT P6SM SCT050

Weather observations and forecasts of more than 4000 airports (METAR and TAF reports).

The available stations are represented by yellow and red dots on the map.

Hover mouse over dot to see the name of the station.

Then click to see weather observations and forecasts.

To change the map : click on the green buttons with a black cross to zoom in, on the green button with a dash to zoom out, or on the green arrows for adjacent maps.


METAR-TAF: